Airfield :
LOGIN :

Register | Disclaimer

   EN    FR    IT 

 










Legend :    VFR   Marginal VFR   IFR   Intensive IFR   Very Intensive IFR
Visi :
Ceiling :
>= 8 km
>= 3000ft
5 to 8 km
1000 to 3000 ft
1500m to 5 km
500 to 1000 ft
800 to 1500m
200 to 500 ft
< 800m
< 200 ft
Symbols :   Thunderstorms  Fog  Heavy snow  Heavy precipitations  Wind > 20 kt
SIGMETs :     Misc.  Thunderstorms  Icing  Turbulence  Mountain Waves  Volcanic Ashes






- Airport Elevation : 463 ft
- IATA code : SZY
- AIRPORT CLOSED.


EPSY - Szczytno

CURRENT METAR :
  • 261130Z 24005KT 5000 -RASN BR SCT006 BKN010 BKN015 01/01 Q1020

EXPIRED METARs :
  • 261100Z 26006KT 9999 -RASN BKN008 BKN013 02/01 Q1020
  • 261030Z 24007KT 9999 SCT006 BKN009 OVC028 02/01 Q1020
  • 261000Z 24004KT 9999 BKN028 01/01 Q1020
  • 260930Z 25004KT 9999 BKN028 01/01 Q1021
  • 260900Z 25005KT 9999 BKN029 01/01 Q1021

TAF TAF EPSY
Valid from the 26 at 12:00 until the 26 at 21:00 UTC


261130Z 2612/2621 25008KT 8000 BKN018
TEMPO 2612/2621 4000 -RASN BR BKN010
PROB40
TEMPO 2612/2617 2000 SNRA BR OVC005
PROB30
TEMPO 2612/2617 1000 DZ BR OVC002



MET'MAP, your aeronautical weather chart ! - Copyright ORBIFLY December 2007 - Disclaimer

ORBIFLY MET'MAP TEAM :

Programming & Development : Alexandra Zaïnal
Original concept : Baudouin d'Aumeries
Technical & hardware support : Manuel Goepfert
Assistance : Marc-Olivier Méhu

Contact : metmap@orbifly.com




SOURCES & CREDITS :

   NOAA